createdAt,value
2019-03-06T00:01:21.500Z,78.34
2019-03-06T00:03:49.272Z,78.54
2019-03-06T00:06:19.769Z,78.50
2019-03-06T00:08:47.543Z,78.61
2019-03-06T00:11:15.565Z,78.70
2019-03-06T00:13:43.340Z,78.41
2019-03-06T00:16:11.086Z,78.57
2019-03-06T00:18:38.871Z,78.92
2019-03-06T00:21:06.625Z,78.85
2019-03-06T00:23:34.406Z,79.14
2019-03-06T00:26:02.161Z,78.95
2019-03-06T00:28:29.957Z,79.06
2019-03-06T00:30:57.693Z,78.95
2019-03-06T00:33:25.458Z,78.97
2019-03-06T00:35:53.803Z,79.01
2019-03-06T00:38:21.753Z,79.20
2019-03-06T00:41:07.223Z,79.42
2019-03-06T00:43:35.095Z,79.41
2019-03-06T00:46:02.877Z,79.24
2019-03-06T00:48:31.324Z,78.90
2019-03-06T00:50:59.128Z,78.78
2019-03-06T00:53:26.895Z,79.00
2019-03-06T00:55:54.653Z,78.94
2019-03-06T00:58:22.557Z,78.82
2019-03-06T01:00:50.289Z,79.12
2019-03-06T01:03:18.645Z,79.00
2019-03-06T01:05:46.421Z,78.86
2019-03-06T01:08:14.195Z,79.35
2019-03-06T01:10:43.410Z,79.71
2019-03-06T01:13:13.081Z,79.78
2019-03-06T01:15:40.839Z,79.61
2019-03-06T01:18:08.603Z,79.89
2019-03-06T01:20:36.347Z,80.24
2019-03-06T01:23:04.147Z,80.15
2019-03-06T01:25:31.890Z,80.17
2019-03-06T01:27:59.779Z,80.12
2019-03-06T01:30:27.596Z,80.35
2019-03-06T01:33:00.677Z,80.22
2019-03-06T01:35:35.663Z,80.12
2019-03-06T01:38:18.229Z,80.33
2019-03-06T01:40:56.491Z,80.29
2019-03-06T01:43:29.188Z,80.43
2019-03-06T01:45:57.262Z,80.48
2019-03-06T01:48:24.998Z,80.81
2019-03-06T01:50:52.806Z,80.71
2019-03-06T01:53:27.856Z,80.38
2019-03-06T01:55:55.705Z,80.64
2019-03-06T01:58:23.742Z,80.84
2019-03-06T02:00:51.505Z,80.88
2019-03-06T02:03:19.238Z,80.82
2019-03-06T02:05:47.002Z,80.94
2019-03-06T02:08:16.052Z,81.09
2019-03-06T02:10:43.792Z,81.35
2019-03-06T02:13:11.845Z,80.90
2019-03-06T02:15:39.620Z,81.02
2019-03-06T02:18:07.355Z,80.99
2019-03-06T02:20:35.140Z,81.07
2019-03-06T02:23:03.035Z,81.36
2019-03-06T02:25:30.768Z,81.51
2019-03-06T02:27:58.544Z,81.51
2019-03-06T02:30:26.436Z,81.56
2019-03-06T02:32:54.187Z,81.56
2019-03-06T02:35:21.938Z,81.90
2019-03-06T02:37:49.697Z,81.91
2019-03-06T02:40:17.578Z,81.92
2019-03-06T02:42:45.342Z,81.74
2019-03-06T02:45:14.424Z,81.79
2019-03-06T02:47:42.304Z,81.78
2019-03-06T02:50:11.293Z,81.95
2019-03-06T02:52:39.230Z,82.05
2019-03-06T02:55:07.572Z,81.96
2019-03-06T02:57:35.714Z,82.08
2019-03-06T03:00:42.941Z,82.23
2019-03-06T03:03:21.118Z,82.34
2019-03-06T03:05:53.557Z,82.30
2019-03-06T03:08:21.281Z,82.49
2019-03-06T03:10:49.029Z,82.47
2019-03-06T03:13:16.765Z,82.60
2019-03-06T03:15:45.291Z,82.76
2019-03-06T03:18:13.031Z,82.95
2019-03-06T03:20:40.804Z,82.71
2019-03-06T03:23:08.539Z,82.79
2019-03-06T03:25:36.293Z,82.90
2019-03-06T03:28:04.163Z,82.99
2019-03-06T03:30:31.927Z,83.27
2019-03-06T03:32:59.691Z,83.16
2019-03-06T03:35:27.477Z,83.20
2019-03-06T03:37:55.421Z,82.56
2019-03-06T03:40:23.186Z,82.76
2019-03-06T03:42:51.122Z,83.01
2019-03-06T03:45:18.870Z,82.68
2019-03-06T03:47:46.728Z,82.53
2019-03-06T03:50:14.522Z,82.66
2019-03-06T03:52:42.785Z,82.51
2019-03-06T03:55:10.791Z,82.09
2019-03-06T03:57:38.642Z,82.19
2019-03-06T04:00:09.449Z,82.24
2019-03-06T04:02:37.330Z,82.06
2019-03-06T04:05:05.810Z,81.68
2019-03-06T04:07:33.569Z,82.41
2019-03-06T04:10:01.310Z,82.03
2019-03-06T04:12:29.075Z,81.73
2019-03-06T04:14:56.833Z,81.34
2019-03-06T04:17:24.599Z,81.67
2019-03-06T04:19:52.649Z,81.79
2019-03-06T04:22:20.436Z,81.39
2019-03-06T04:24:48.195Z,81.42
2019-03-06T04:27:15.936Z,81.61
2019-03-06T04:29:43.692Z,81.57
2019-03-06T04:32:11.489Z,81.56
2019-03-06T04:34:39.452Z,81.47
2019-03-06T04:37:07.214Z,80.85
2019-03-06T04:39:35.399Z,80.79
2019-03-06T04:42:03.192Z,80.96
2019-03-06T04:44:30.927Z,80.96
2019-03-06T04:46:58.743Z,80.81
2019-03-06T04:49:26.485Z,80.66
2019-03-06T04:51:54.263Z,81.32
2019-03-06T04:54:22.031Z,81.08
2019-03-06T04:56:49.915Z,80.85
2019-03-06T04:59:17.649Z,81.19
2019-03-06T05:01:45.729Z,81.29
2019-03-06T05:04:13.501Z,81.45
2019-03-06T05:06:41.283Z,81.08
2019-03-06T05:09:09.057Z,81.60
2019-03-06T05:11:36.815Z,81.18
2019-03-06T05:14:04.563Z,81.71
2019-03-06T05:17:09.853Z,81.50
2019-03-06T05:19:37.783Z,81.09
2019-03-06T05:22:05.827Z,81.15
2019-03-06T05:24:33.555Z,81.07
2019-03-06T05:27:01.315Z,81.08
2019-03-06T05:29:29.063Z,81.90
2019-03-06T05:32:34.278Z,82.11
2019-03-06T05:35:07.180Z,82.09
2019-03-06T05:38:14.045Z,82.43
2019-03-06T05:40:41.757Z,82.62
2019-03-06T05:43:09.523Z,82.59
2019-03-06T05:45:37.302Z,82.14
2019-03-06T05:48:05.188Z,82.18
2019-03-06T05:50:33.087Z,82.45
2019-03-06T05:53:00.876Z,81.75
2019-03-06T05:55:29.466Z,81.76
2019-03-06T05:57:57.269Z,82.16
2019-03-06T06:00:26.276Z,82.04
2019-03-06T06:02:54.103Z,81.87
2019-03-06T06:05:21.880Z,81.03
2019-03-06T06:07:49.656Z,81.05
2019-03-06T06:10:17.422Z,81.14
2019-03-06T06:12:45.206Z,81.42
2019-03-06T06:15:13.156Z,81.58
2019-03-06T06:17:41.038Z,80.72
2019-03-06T06:20:10.018Z,80.48
2019-03-06T06:22:59.332Z,80.36
2019-03-06T06:25:28.037Z,80.50
2019-03-06T06:27:55.826Z,80.32
2019-03-06T06:30:23.551Z,80.01
2019-03-06T06:32:51.374Z,80.01
2019-03-06T06:35:19.119Z,79.62
2019-03-06T06:37:46.866Z,80.14
2019-03-06T06:40:14.756Z,80.10
2019-03-06T06:42:42.526Z,79.75
2019-03-06T06:45:10.604Z,80.12
2019-03-06T06:48:07.199Z,79.99
2019-03-06T06:50:35.174Z,80.16
2019-03-06T06:53:53.353Z,79.69
2019-03-06T06:57:07.659Z,79.50
2019-03-06T07:00:52.145Z,78.95
2019-03-06T07:04:13.165Z,78.70
2019-03-06T07:06:48.698Z,78.16
2019-03-06T07:09:31.173Z,78.21
2019-03-06T07:12:07.935Z,77.48
2019-03-06T07:15:04.239Z,77.50
2019-03-06T07:17:40.426Z,77.43
2019-03-06T07:20:14.199Z,77.31
2019-03-06T07:22:52.686Z,77.09
2019-03-06T07:25:35.017Z,76.58
2019-03-06T07:28:19.763Z,75.96
2019-03-06T07:31:25.178Z,76.05
2019-03-06T07:34:07.696Z,75.35
2019-03-06T07:36:53.448Z,75.11
2019-03-06T07:39:34.943Z,74.71
2019-03-06T07:42:22.394Z,74.22
2019-03-06T07:45:55.949Z,73.39
2019-03-06T07:48:32.322Z,73.08
2019-03-06T07:51:19.668Z,72.63
2019-03-06T07:54:07.896Z,72.32
2019-03-06T07:56:44.430Z,72.50
2019-03-06T07:59:12.254Z,72.65
2019-03-06T08:01:56.704Z,72.87
2019-03-06T08:04:24.458Z,71.76
2019-03-06T08:07:02.203Z,71.27
2019-03-06T08:09:29.974Z,70.59
2019-03-06T08:12:15.722Z,70.04
2019-03-06T08:15:08.852Z,68.91
2019-03-06T08:17:55.034Z,68.64
2019-03-06T08:20:44.913Z,68.81
2019-03-06T08:23:34.350Z,67.94
2019-03-06T08:26:03.809Z,67.41
2019-03-06T08:28:31.571Z,67.05
2019-03-06T08:31:17.605Z,67.54
2019-03-06T08:33:45.463Z,67.23
2019-03-06T08:36:13.273Z,66.88
2019-03-06T08:38:41.077Z,66.08
2019-03-06T08:41:08.856Z,65.31
2019-03-06T08:43:36.695Z,65.25
2019-03-06T08:46:35.872Z,65.51
2019-03-06T08:49:42.342Z,65.01
2019-03-06T08:52:32.489Z,65.51
2019-03-06T08:55:18.315Z,64.73
2019-03-06T08:58:14.243Z,63.87
2019-03-06T09:01:00.147Z,62.96
2019-03-06T09:03:47.921Z,63.12
2019-03-06T09:06:35.397Z,63.63
2019-03-06T09:09:17.671Z,63.10
2019-03-06T09:12:20.070Z,63.05
2019-03-06T09:15:23.786Z,62.84
2019-03-06T09:18:09.585Z,61.49
2019-03-06T09:20:55.966Z,61.14
2019-03-06T09:23:41.675Z,61.56
2019-03-06T09:26:15.979Z,60.46
2019-03-06T09:29:09.244Z,58.79
2019-03-06T09:31:44.350Z,57.68
2019-03-06T09:34:19.159Z,56.35
2019-03-06T09:37:06.528Z,54.98
2019-03-06T09:40:03.071Z,53.33
2019-03-06T09:42:56.339Z,53.07
2019-03-06T09:45:43.101Z,52.81
2019-03-06T09:48:23.662Z,52.60
2019-03-06T09:51:00.445Z,52.78
2019-03-06T09:53:53.716Z,52.56
2019-03-06T09:56:38.290Z,54.13
2019-03-06T09:59:15.096Z,52.90
2019-03-06T10:02:08.350Z,46.66
2019-03-06T10:04:47.560Z,41.27
2019-03-06T10:07:33.627Z,40.74
2019-03-06T10:10:06.100Z,39.21
2019-03-06T10:13:05.547Z,44.63
2019-03-06T10:15:42.836Z,45.76
2019-03-06T10:18:33.387Z,47.17
2019-03-06T10:21:01.136Z,47.92
2019-03-06T10:23:29.261Z,49.00
2019-03-06T10:25:57.082Z,48.61
2019-03-06T10:28:28.027Z,49.36
2019-03-06T10:31:02.054Z,49.73
2019-03-06T10:33:24.232Z,49.14
2019-03-06T10:35:52.050Z,48.52
2019-03-06T10:38:19.958Z,47.50
2019-03-06T10:40:47.806Z,46.90
2019-03-06T10:43:15.618Z,45.29
2019-03-06T10:45:43.383Z,42.87
2019-03-06T10:48:11.193Z,42.48
2019-03-06T10:50:39.068Z,44.15
2019-03-06T10:53:06.858Z,45.83
2019-03-06T10:55:34.596Z,47.80
2019-03-06T10:58:03.352Z,47.12
2019-03-06T11:00:35.317Z,46.65
2019-03-06T11:03:03.524Z,46.25
2019-03-06T11:05:39.161Z,46.81
2019-03-06T11:08:07.290Z,44.86
2019-03-06T11:10:35.244Z,42.48
2019-03-06T11:13:08.752Z,41.74
2019-03-06T11:15:37.299Z,41.74
2019-03-06T11:18:05.432Z,43.22
2019-03-06T11:20:33.997Z,44.03
2019-03-06T11:23:04.331Z,47.52
2019-03-06T11:25:34.069Z,46.63
2019-03-06T11:28:02.178Z,44.63
2019-03-06T11:30:35.617Z,44.45
2019-03-06T11:33:05.165Z,43.04
2019-03-06T11:35:34.235Z,42.29
2019-03-06T11:38:02.145Z,41.85
2019-03-06T11:40:30.172Z,39.67
2019-03-06T11:42:57.970Z,40.46
2019-03-06T11:45:25.732Z,43.09
2019-03-06T11:47:53.570Z,44.75
2019-03-06T11:50:23.647Z,44.23
2019-03-06T11:52:51.974Z,44.93
2019-03-06T11:55:20.281Z,44.20
2019-03-06T11:57:48.113Z,40.65
2019-03-06T12:00:37.680Z,37.21
2019-03-06T12:03:06.350Z,37.54
2019-03-06T12:05:35.266Z,37.24
2019-03-06T12:08:07.090Z,37.21
2019-03-06T12:10:34.917Z,37.43
2019-03-06T12:13:06.082Z,39.51
2019-03-06T12:15:33.830Z,41.09
2019-03-06T12:18:01.633Z,39.52
2019-03-06T12:20:29.376Z,36.94
2019-03-06T12:22:57.257Z,35.09
2019-03-06T12:25:24.978Z,34.30
2019-03-06T12:27:52.742Z,35.39
2019-03-06T12:30:20.615Z,35.54
2019-03-06T12:32:48.420Z,34.23
2019-03-06T12:35:17.067Z,33.41
2019-03-06T12:37:47.140Z,31.48
2019-03-06T12:40:15.336Z,31.36
2019-03-06T12:42:43.190Z,31.23
2019-03-06T12:45:13.560Z,28.59
2019-03-06T12:47:43.030Z,27.79
2019-03-06T12:50:14.876Z,27.47
2019-03-06T12:52:42.598Z,29.43
2019-03-06T12:55:10.915Z,31.59
2019-03-06T12:57:38.679Z,31.23
2019-03-06T13:00:16.695Z,27.04
2019-03-06T13:02:44.679Z,25.77
2019-03-06T13:05:12.727Z,24.10
2019-03-06T13:07:40.577Z,23.52
2019-03-06T13:10:09.585Z,24.51
2019-03-06T13:12:38.279Z,23.60
2019-03-06T13:15:08.578Z,24.19
2019-03-06T13:17:36.485Z,27.98
2019-03-06T13:20:08.919Z,30.15
2019-03-06T13:22:36.951Z,29.06
2019-03-06T13:25:05.774Z,25.88
2019-03-06T13:27:33.559Z,27.97
2019-03-06T13:30:01.425Z,27.22
2019-03-06T13:32:40.313Z,27.95
2019-03-06T13:35:08.176Z,25.17
2019-03-06T13:37:35.980Z,26.08
2019-03-06T13:40:04.643Z,27.73
2019-03-06T13:42:32.414Z,28.62
2019-03-06T13:45:00.325Z,26.98
2019-03-06T13:47:28.257Z,30.33
2019-03-06T13:49:56.184Z,31.85
2019-03-06T13:52:24.004Z,32.10
2019-03-06T13:54:51.863Z,32.46
2019-03-06T13:57:20.628Z,34.35
2019-03-06T13:59:48.416Z,34.87
2019-03-06T14:02:16.332Z,35.12
2019-03-06T14:04:44.071Z,36.09
2019-03-06T14:07:12.058Z,36.69
2019-03-06T14:09:39.943Z,37.18
2019-03-06T14:12:07.715Z,38.99
2019-03-06T14:14:35.493Z,40.40
2019-03-06T14:17:05.751Z,41.51
2019-03-06T14:19:33.546Z,42.90
2019-03-06T14:22:01.645Z,43.67
2019-03-06T14:24:30.382Z,43.61
2019-03-06T14:26:58.157Z,43.32
2019-03-06T14:29:25.965Z,43.80
2019-03-06T14:31:53.800Z,43.82
2019-03-06T14:34:21.555Z,43.51
2019-03-06T14:36:49.380Z,43.79
2019-03-06T14:39:29.079Z,43.81
2019-03-06T14:41:58.041Z,44.51
2019-03-06T14:44:25.818Z,44.78
2019-03-06T14:46:53.626Z,44.90
2019-03-06T14:49:21.614Z,45.28
2019-03-06T14:51:49.800Z,45.44
2019-03-06T14:54:17.589Z,45.45
2019-03-06T14:56:45.363Z,45.45
2019-03-06T14:59:13.107Z,45.46
2019-03-06T15:01:41.061Z,45.71
2019-03-06T15:04:08.842Z,45.91
2019-03-06T15:06:36.629Z,46.29
2019-03-06T15:09:21.635Z,46.15
2019-03-06T15:11:49.415Z,45.92
2019-03-06T15:14:17.429Z,45.79
2019-03-06T15:16:45.280Z,45.31
2019-03-06T15:19:13.068Z,45.25
2019-03-06T15:21:40.896Z,44.91
2019-03-06T15:24:08.757Z,44.59
2019-03-06T15:26:36.527Z,45.08
2019-03-06T15:29:04.321Z,43.86
2019-03-06T15:31:32.075Z,43.44
2019-03-06T15:33:59.850Z,43.40
2019-03-06T15:36:28.111Z,43.83
2019-03-06T15:38:55.875Z,44.28
2019-03-06T15:41:23.644Z,44.21
2019-03-06T15:43:51.432Z,44.65
2019-03-06T15:46:19.418Z,44.58
2019-03-06T15:48:47.218Z,45.29
2019-03-06T15:51:14.967Z,45.80
2019-03-06T15:53:43.800Z,45.90
2019-03-06T15:56:11.576Z,46.07
2019-03-06T15:58:39.352Z,46.27
2019-03-06T16:01:07.418Z,46.36
2019-03-06T16:03:35.204Z,46.82
2019-03-06T16:06:03.074Z,47.13
2019-03-06T16:08:31.245Z,46.99
2019-03-06T16:10:58.987Z,47.36
2019-03-06T16:13:26.776Z,47.47
2019-03-06T16:15:55.509Z,47.36
2019-03-06T16:18:23.371Z,47.82
2019-03-06T16:20:54.648Z,47.86
2019-03-06T16:23:22.660Z,47.98
2019-03-06T16:25:50.415Z,48.52
2019-03-06T16:28:18.217Z,48.48
2019-03-06T16:30:46.321Z,48.57
2019-03-06T16:33:14.099Z,48.68
2019-03-06T16:35:41.923Z,48.93
2019-03-06T16:38:12.246Z,49.06
2019-03-06T16:40:40.132Z,49.36
2019-03-06T16:43:07.929Z,49.52
2019-03-06T16:45:35.673Z,49.70
2019-03-06T16:48:06.818Z,49.83
2019-03-06T16:50:34.737Z,50.19
2019-03-06T16:53:02.795Z,50.75
2019-03-06T16:55:30.597Z,51.12
2019-03-06T16:57:59.329Z,51.35
2019-03-06T17:00:31.181Z,51.62
2019-03-06T17:03:00.306Z,51.74
2019-03-06T17:05:28.284Z,51.77
2019-03-06T17:07:58.860Z,51.61
2019-03-06T17:10:27.144Z,51.79
2019-03-06T17:12:55.817Z,51.98
2019-03-06T17:15:24.870Z,51.79
2019-03-06T17:17:53.301Z,51.40
2019-03-06T17:20:23.300Z,51.64
2019-03-06T17:22:51.572Z,51.40
2019-03-06T17:25:19.474Z,51.34
2019-03-06T17:27:47.234Z,51.73
2019-03-06T17:30:18.777Z,51.68
2019-03-06T17:33:05.192Z,52.02
2019-03-06T17:35:33.636Z,51.90
2019-03-06T17:38:02.466Z,52.08
2019-03-06T17:40:30.746Z,51.72
2019-03-06T17:42:58.682Z,51.96
2019-03-06T17:45:27.157Z,51.79
2019-03-06T17:47:55.234Z,51.36
2019-03-06T17:50:23.823Z,51.17
2019-03-06T17:52:51.772Z,51.30
2019-03-06T17:55:19.958Z,51.08
2019-03-06T17:57:47.699Z,51.28
2019-03-06T18:00:17.321Z,51.59
2019-03-06T18:02:45.230Z,51.63
2019-03-06T18:05:13.422Z,51.67
2019-03-06T18:07:41.184Z,51.71
2019-03-06T18:10:11.491Z,50.96
2019-03-06T18:12:39.260Z,50.89
2019-03-06T18:15:09.759Z,51.45
2019-03-06T18:17:38.025Z,50.95
2019-03-06T18:20:08.682Z,51.36
2019-03-06T18:22:36.479Z,51.12
2019-03-06T18:25:05.983Z,51.03
2019-03-06T18:27:33.841Z,50.70
2019-03-06T18:30:01.617Z,51.08
2019-03-06T18:32:29.383Z,51.17
2019-03-06T18:34:57.590Z,51.29
2019-03-06T18:37:25.379Z,51.42
2019-03-06T18:39:53.175Z,51.50
2019-03-06T18:42:20.922Z,51.72
2019-03-06T18:44:48.704Z,51.73
2019-03-06T18:47:16.451Z,51.82
2019-03-06T18:49:44.220Z,52.14
2019-03-06T18:52:12.205Z,52.10
2019-03-06T18:54:39.991Z,51.77
2019-03-06T18:57:07.795Z,51.53
2019-03-06T18:59:35.559Z,51.60
2019-03-06T19:02:03.534Z,51.62
2019-03-06T19:04:31.547Z,51.62
2019-03-06T19:06:59.323Z,51.94
2019-03-06T19:09:27.386Z,51.75
2019-03-06T19:11:55.306Z,52.01
2019-03-06T19:14:23.092Z,51.86
2019-03-06T19:16:50.944Z,51.82
2019-03-06T19:19:18.727Z,51.80
2019-03-06T19:21:46.618Z,52.16
2019-03-06T19:24:14.513Z,52.36
2019-03-06T19:26:42.285Z,52.67
2019-03-06T19:29:10.161Z,52.74
2019-03-06T19:31:37.932Z,52.88
2019-03-06T19:34:05.829Z,53.15
2019-03-06T19:36:33.595Z,53.02
2019-03-06T19:39:01.332Z,52.72
2019-03-06T19:41:29.126Z,52.92
2019-03-06T19:43:56.979Z,53.04
2019-03-06T19:46:24.833Z,53.00
2019-03-06T19:48:52.597Z,53.06
2019-03-06T19:51:20.376Z,53.19
2019-03-06T19:53:48.165Z,53.10
2019-03-06T19:56:16.029Z,52.82
2019-03-06T19:58:43.827Z,52.75
2019-03-06T20:01:12.852Z,52.69
2019-03-06T20:03:40.641Z,52.66
2019-03-06T20:06:08.509Z,52.85
2019-03-06T20:08:36.880Z,53.05
2019-03-06T20:11:04.722Z,53.06
2019-03-06T20:13:32.488Z,53.65
2019-03-06T20:16:00.275Z,53.72
2019-03-06T20:18:28.212Z,53.93
2019-03-06T20:20:55.962Z,53.87
2019-03-06T20:23:23.757Z,53.72
2019-03-06T20:25:51.976Z,53.67
2019-03-06T20:28:19.841Z,53.55
2019-03-06T20:30:47.595Z,53.31
2019-03-06T20:33:15.383Z,53.37
2019-03-06T20:35:43.184Z,53.38
2019-03-06T20:38:11.012Z,53.22
2019-03-06T20:40:38.757Z,53.34
2019-03-06T20:43:07.549Z,53.48
2019-03-06T20:45:35.312Z,53.33
2019-03-06T20:48:03.121Z,52.93
2019-03-06T20:50:30.877Z,52.98
2019-03-06T20:52:58.693Z,53.05
2019-03-06T20:55:26.466Z,52.86
2019-03-06T20:57:54.555Z,52.99
2019-03-06T21:00:22.791Z,52.65
2019-03-06T21:02:50.709Z,52.61
2019-03-06T21:05:18.599Z,52.81
2019-03-06T21:07:46.458Z,53.14
2019-03-06T21:10:14.937Z,52.67
2019-03-06T21:12:43.917Z,52.59
2019-03-06T21:15:14.228Z,52.54
2019-03-06T21:17:42.045Z,52.64
2019-03-06T21:20:13.008Z,52.70
2019-03-06T21:22:40.775Z,52.68
2019-03-06T21:25:09.830Z,52.90
2019-03-06T21:27:37.648Z,52.90
2019-03-06T21:30:10.044Z,53.02
2019-03-06T21:32:37.832Z,53.14
2019-03-06T21:35:05.900Z,52.93
2019-03-06T21:37:33.745Z,53.03
2019-03-06T21:40:01.570Z,52.62
2019-03-06T21:42:29.336Z,52.49
2019-03-06T21:44:57.106Z,52.34
2019-03-06T21:47:25.180Z,52.93
2019-03-06T21:49:53.024Z,52.96
2019-03-06T21:52:23.016Z,52.62
2019-03-06T21:54:50.494Z,52.98
2019-03-06T21:57:18.292Z,52.81
2019-03-06T21:59:46.089Z,52.81
2019-03-06T22:02:13.849Z,52.75
2019-03-06T22:04:41.871Z,52.36
2019-03-06T22:07:09.688Z,52.41
2019-03-06T22:09:37.455Z,52.57
2019-03-06T22:12:05.237Z,52.87
2019-03-06T22:14:33.042Z,52.91
2019-03-06T22:17:02.594Z,52.89
2019-03-06T22:19:31.616Z,52.74
2019-03-06T22:21:59.566Z,52.83
2019-03-06T22:24:27.316Z,52.70
2019-03-06T22:26:55.083Z,53.10
2019-03-06T22:29:22.885Z,53.07
2019-03-06T22:31:50.698Z,53.29
2019-03-06T22:34:18.593Z,53.59
2019-03-06T22:36:46.674Z,53.57
2019-03-06T22:39:14.441Z,53.09
2019-03-06T22:41:42.265Z,52.99
2019-03-06T22:44:10.060Z,53.16
2019-03-06T22:46:37.809Z,52.81
2019-03-06T22:49:05.601Z,52.94
2019-03-06T22:51:33.380Z,52.97
2019-03-06T22:54:01.293Z,52.71
2019-03-06T22:56:29.078Z,52.78
2019-03-06T22:58:56.865Z,52.69
2019-03-06T23:01:29.135Z,52.40
2019-03-06T23:03:57.241Z,52.64
2019-03-06T23:06:25.146Z,52.52
2019-03-06T23:08:52.963Z,52.73
2019-03-06T23:11:21.227Z,53.12
2019-03-06T23:13:48.979Z,52.69
2019-03-06T23:16:16.772Z,52.53
2019-03-06T23:18:44.525Z,52.55
2019-03-06T23:21:12.302Z,52.38
2019-03-06T23:23:40.283Z,52.32
2019-03-06T23:26:08.085Z,52.25
2019-03-06T23:28:35.852Z,51.99
2019-03-06T23:31:03.635Z,52.27
2019-03-06T23:33:31.407Z,52.55
2019-03-06T23:35:59.190Z,52.63
2019-03-06T23:38:26.941Z,52.61
2019-03-06T23:40:54.711Z,52.18
2019-03-06T23:43:22.488Z,52.46
2019-03-06T23:45:50.273Z,52.48
2019-03-06T23:48:18.035Z,52.52
2019-03-06T23:50:45.985Z,52.42
2019-03-06T23:53:29.120Z,52.28
2019-03-06T23:55:56.933Z,52.53
2019-03-06T23:58:24.676Z,52.73
